createdAt,value
2018-09-28T03:01:26.673Z,0.00
2018-09-28T03:02:27.176Z,0.00
2018-09-28T03:03:27.678Z,0.00
2018-09-28T03:04:27.325Z,0.00
2018-09-28T03:05:28.374Z,0.00
2018-09-28T03:06:27.888Z,0.00
2018-09-28T03:07:26.861Z,0.00
2018-09-28T03:08:26.892Z,0.00
2018-09-28T03:09:25.872Z,0.00
2018-09-28T03:10:25.833Z,0.00
2018-09-28T03:11:26.069Z,0.00
2018-09-28T03:12:26.325Z,0.00
2018-09-28T03:13:26.542Z,0.00
2018-09-28T03:14:26.549Z,0.00
2018-09-28T03:15:26.754Z,0.00
2018-09-28T03:16:27.035Z,0.00
2018-09-28T03:17:27.067Z,0.00
2018-09-28T03:18:27.572Z,0.00
2018-09-28T03:19:28.047Z,0.00
2018-09-28T03:20:27.664Z,0.00
2018-09-28T03:21:27.676Z,0.00
2018-09-28T03:22:27.714Z,0.00
2018-09-28T03:23:27.803Z,0.00
2018-09-28T03:24:28.255Z,0.00
2018-09-28T03:25:28.299Z,0.00
2018-09-28T03:26:28.442Z,0.00
2018-09-28T03:27:28.794Z,0.00
2018-09-28T03:28:29.251Z,0.00
2018-09-28T03:29:29.248Z,0.00
2018-09-28T03:30:29.166Z,0.00
2018-09-28T03:31:30.118Z,0.00
2018-09-28T03:32:29.495Z,0.00
2018-09-28T03:33:29.659Z,0.00
2018-09-28T03:34:30.011Z,0.00
2018-09-28T03:35:30.005Z,0.00
2018-09-28T03:36:30.215Z,0.00
2018-09-28T03:37:30.493Z,0.00
2018-09-28T03:38:30.665Z,0.00
2018-09-28T03:39:30.815Z,0.00
2018-09-28T03:40:30.906Z,0.00
2018-09-28T03:41:31.796Z,0.00
2018-09-28T03:42:31.230Z,0.00
2018-09-28T03:43:31.322Z,0.00
2018-09-28T03:44:31.634Z,0.00
2018-09-28T03:45:32.958Z,0.00
2018-09-28T03:47:32.234Z,0.00
2018-09-28T03:48:32.259Z,0.00
2018-09-28T03:49:32.352Z,0.00
2018-09-28T03:50:32.670Z,0.00
2018-09-28T03:51:32.891Z,0.00
2018-09-28T03:52:33.289Z,0.00
2018-09-28T03:53:33.274Z,0.00
2018-09-28T03:54:33.643Z,0.00
2018-09-28T03:55:33.718Z,0.00
2018-09-28T03:56:34.079Z,0.00
2018-09-28T03:57:34.186Z,0.00
2018-09-28T03:58:34.253Z,0.00
2018-09-28T03:59:34.465Z,0.00
2018-09-28T04:00:34.779Z,0.00
2018-09-28T04:01:34.826Z,0.00
2018-09-28T04:02:35.100Z,0.00
2018-09-28T04:03:35.378Z,0.00
2018-09-28T04:04:35.436Z,0.00
2018-09-28T04:05:35.595Z,0.00
2018-09-28T04:06:36.019Z,0.00
2018-09-28T04:07:35.972Z,0.00
2018-09-28T04:08:36.067Z,0.00
2018-09-28T04:09:36.270Z,0.00
2018-09-28T04:12:25.801Z,0.00
2018-09-28T04:13:25.811Z,0.00
2018-09-28T04:14:26.200Z,0.00
2018-09-28T04:15:26.445Z,0.00
2018-09-28T04:16:26.614Z,0.00
2018-09-28T04:17:27.913Z,0.00
2018-09-28T04:18:29.299Z,0.00
2018-09-28T04:19:27.430Z,0.00
2018-09-28T04:20:26.897Z,0.00
2018-09-28T04:21:25.619Z,0.00
2018-09-28T04:22:25.531Z,0.00
2018-09-28T04:23:25.507Z,0.00
2018-09-28T04:24:25.819Z,0.00
2018-09-28T04:25:25.966Z,0.00
2018-09-28T04:26:26.137Z,0.00
2018-09-28T04:27:26.350Z,0.00
2018-09-28T04:28:26.495Z,0.00
2018-09-28T04:29:27.707Z,0.00
2018-09-28T04:30:26.760Z,0.00
2018-09-28T04:31:26.973Z,0.00
2018-09-28T04:32:28.109Z,0.00
2018-09-28T04:33:27.349Z,0.00
2018-09-28T04:34:27.354Z,0.00
2018-09-28T04:35:27.379Z,0.00
2018-09-28T04:36:27.380Z,0.00
2018-09-28T04:37:27.591Z,0.00
2018-09-28T04:38:27.682Z,0.00
2018-09-28T04:39:27.916Z,0.00
2018-09-28T04:40:28.217Z,0.00
2018-09-28T04:41:28.353Z,0.00
2018-09-28T04:42:28.590Z,0.00
2018-09-28T04:43:28.767Z,0.00
2018-09-28T04:44:29.522Z,0.00
2018-09-28T04:45:29.112Z,0.00
2018-09-28T04:46:29.529Z,0.00
2018-09-28T04:47:29.316Z,0.00
2018-09-28T04:48:29.500Z,0.00
2018-09-28T04:49:30.083Z,0.00
2018-09-28T04:50:29.779Z,0.00
2018-09-28T04:51:30.029Z,0.00
2018-09-28T04:52:30.233Z,0.00
2018-09-28T04:53:30.317Z,0.00
2018-09-28T04:54:30.435Z,0.00
2018-09-28T04:55:30.708Z,0.00
2018-09-28T04:56:30.851Z,0.00
2018-09-28T04:57:30.978Z,0.00
2018-09-28T04:58:32.134Z,0.00
2018-09-28T04:59:31.427Z,0.00
2018-09-28T05:00:31.953Z,0.00
2018-09-28T05:01:31.858Z,0.00
2018-09-28T05:02:32.022Z,0.00
2018-09-28T05:03:39.466Z,0.00
2018-09-28T05:04:33.116Z,0.00
2018-09-28T05:05:35.248Z,0.00
2018-09-28T05:06:35.340Z,0.00
2018-09-28T05:07:34.850Z,5.63
2018-09-28T05:08:33.508Z,5.63
2018-09-28T05:09:35.537Z,5.63
2018-09-28T05:10:36.385Z,5.63
2018-09-28T05:11:34.117Z,5.63
2018-09-28T05:12:40.561Z,5.63
2018-09-28T05:13:37.552Z,5.63
2018-09-28T05:14:37.621Z,11.25
2018-09-28T05:15:35.752Z,11.25
2018-09-28T05:16:37.942Z,11.25
2018-09-28T05:17:37.099Z,11.25
2018-09-28T05:18:35.930Z,16.88
2018-09-28T05:19:35.421Z,16.88
2018-09-28T05:20:38.246Z,16.88
2018-09-28T05:21:37.211Z,16.88
2018-09-28T05:22:36.694Z,22.50
2018-09-28T05:23:36.058Z,22.50
2018-09-28T05:24:36.177Z,22.50
2018-09-28T05:25:36.377Z,28.13
2018-09-28T05:26:36.935Z,28.13
2018-09-28T05:27:36.742Z,28.13
2018-09-28T05:28:37.206Z,33.75
2018-09-28T05:29:43.499Z,33.75
2018-09-28T05:47:54.131Z,67.50
2018-09-28T05:48:55.564Z,73.13
2018-09-28T05:49:53.379Z,73.13
2018-09-28T05:50:53.563Z,73.13
2018-09-28T05:51:53.340Z,78.75
2018-09-28T05:52:53.168Z,78.75
2018-09-28T05:53:53.973Z,84.38
2018-09-28T05:54:54.087Z,90.00
2018-09-28T05:55:54.694Z,90.00
2018-09-28T05:56:53.674Z,95.63
2018-09-28T05:57:53.192Z,101.25
2018-09-28T05:58:52.485Z,106.88
2018-09-28T05:59:52.483Z,106.88
2018-09-28T06:00:52.669Z,106.88
2018-09-28T06:01:52.894Z,112.50
2018-09-28T06:02:53.099Z,112.50
2018-09-28T06:03:53.242Z,118.13
2018-09-28T06:04:53.449Z,118.13
2018-09-28T06:05:53.445Z,123.75
2018-09-28T06:06:53.585Z,123.75
2018-09-28T06:07:53.752Z,129.38
2018-09-28T06:09:21.664Z,129.38
2018-09-28T06:09:53.909Z,135.00
2018-09-28T06:10:54.265Z,135.00
2018-09-28T06:11:55.077Z,140.63
2018-09-28T06:12:54.348Z,140.63
2018-09-28T06:13:54.571Z,146.25
2018-09-28T06:14:56.048Z,146.25
2018-09-28T06:15:55.250Z,146.25
2018-09-28T06:16:55.085Z,146.25
2018-09-28T06:17:55.113Z,146.25
2018-09-28T06:18:55.514Z,146.25
2018-09-28T06:19:55.671Z,151.88
2018-09-28T06:20:55.793Z,151.88
2018-09-28T06:21:56.260Z,163.13
2018-09-28T06:22:56.983Z,163.13
2018-09-28T06:23:56.355Z,157.50
2018-09-28T06:24:56.366Z,157.50
2018-09-28T06:25:56.719Z,168.75
2018-09-28T06:26:56.810Z,180.00
2018-09-28T06:27:56.971Z,191.25
2018-09-28T06:28:56.995Z,191.25
2018-09-28T06:29:57.279Z,196.88
2018-09-28T06:30:57.421Z,196.88
2018-09-28T06:31:57.602Z,208.13
2018-09-28T06:32:57.845Z,202.50
2018-09-28T06:33:57.925Z,202.50
2018-09-28T06:34:58.038Z,202.50
2018-09-28T06:35:58.228Z,202.50
2018-09-28T06:36:58.469Z,208.13
2018-09-28T06:37:58.510Z,208.13
2018-09-28T06:38:58.674Z,213.75
2018-09-28T06:39:58.808Z,213.75
2018-09-28T06:40:59.039Z,219.38
2018-09-28T06:41:59.178Z,219.38
2018-09-28T06:42:59.342Z,208.13
2018-09-28T06:43:59.467Z,202.50
2018-09-28T06:44:59.613Z,208.13
2018-09-28T06:45:59.792Z,208.13
2018-09-28T06:46:59.956Z,202.50
2018-09-28T06:48:00.144Z,185.63
2018-09-28T06:49:00.233Z,174.38
2018-09-28T06:50:00.581Z,180.00
2018-09-28T06:51:00.642Z,191.25
2018-09-28T06:52:00.914Z,196.88
2018-09-28T06:53:01.085Z,191.25
2018-09-28T06:54:01.181Z,213.75
2018-09-28T06:55:01.337Z,247.50
2018-09-28T06:56:02.608Z,270.00
2018-09-28T06:57:01.642Z,264.38
2018-09-28T06:58:02.001Z,253.13
2018-09-28T06:59:02.014Z,241.88
2018-09-28T07:00:02.138Z,247.50
2018-09-28T07:01:02.322Z,253.13
2018-09-28T07:02:02.471Z,241.88
2018-09-28T07:03:02.688Z,264.38
2018-09-28T07:04:02.854Z,270.00
2018-09-28T07:05:03.000Z,275.63
2018-09-28T07:06:03.661Z,298.13
2018-09-28T07:07:03.301Z,320.63
2018-09-28T07:08:03.555Z,326.25
2018-09-28T07:09:03.783Z,326.25
2018-09-28T07:10:03.918Z,331.88
2018-09-28T07:11:04.062Z,331.88
2018-09-28T07:12:04.321Z,320.63
2018-09-28T07:13:04.452Z,315.00
2018-09-28T07:14:04.592Z,320.63
2018-09-28T07:15:04.705Z,331.88
2018-09-28T07:16:04.959Z,331.88
2018-09-28T07:17:05.093Z,331.88
2018-09-28T07:18:05.254Z,326.25
2018-09-28T07:19:05.402Z,303.75
2018-09-28T07:20:05.735Z,292.50
2018-09-28T07:21:05.811Z,309.38
2018-09-28T07:22:05.981Z,303.75
2018-09-28T07:23:06.091Z,303.75
2018-09-28T07:24:06.269Z,309.38
2018-09-28T07:25:06.589Z,298.13
2018-09-28T07:26:06.710Z,298.13
2018-09-28T07:27:06.845Z,303.75
2018-09-28T07:28:06.983Z,326.25
2018-09-28T07:29:07.244Z,337.50
2018-09-28T07:30:07.520Z,360.00
2018-09-28T07:31:07.441Z,360.00
2018-09-28T07:32:07.733Z,360.00
2018-09-28T07:33:07.962Z,343.13
2018-09-28T07:34:08.736Z,354.38
2018-09-28T07:35:08.270Z,388.13
2018-09-28T07:36:08.663Z,382.50
2018-09-28T07:37:08.730Z,376.88
2018-09-28T07:38:08.737Z,343.13
2018-09-28T07:39:09.006Z,326.25
2018-09-28T07:40:09.346Z,331.88
2018-09-28T07:41:09.251Z,365.63
2018-09-28T07:42:09.507Z,382.50
2018-09-28T07:43:09.561Z,410.63
2018-09-28T07:44:09.824Z,421.88
2018-09-28T07:45:09.977Z,427.50
2018-09-28T07:46:10.109Z,376.88
2018-09-28T07:47:10.380Z,416.25
2018-09-28T07:48:10.561Z,483.75
2018-09-28T07:49:10.615Z,579.38
2018-09-28T07:50:10.887Z,680.63
2018-09-28T07:51:11.009Z,725.63
2018-09-28T07:52:11.108Z,708.75
2018-09-28T07:53:11.415Z,708.75
2018-09-28T07:54:11.666Z,691.88
2018-09-28T07:55:11.848Z,652.50
2018-09-28T07:56:11.800Z,624.38
2018-09-28T07:57:11.962Z,590.63
2018-09-28T07:58:12.155Z,585.00
2018-09-28T07:59:12.477Z,596.25
2018-09-28T08:00:12.569Z,585.00
2018-09-28T08:01:12.734Z,551.25
2018-09-28T08:02:12.829Z,511.88
2018-09-28T08:03:13.985Z,506.25
2018-09-28T08:04:13.281Z,495.00
2018-09-28T08:05:13.284Z,478.13
2018-09-28T08:06:13.571Z,466.88
2018-09-28T08:07:13.739Z,478.13
2018-09-28T08:08:13.795Z,489.38
2018-09-28T08:09:14.031Z,489.38
2018-09-28T08:10:14.518Z,506.25
2018-09-28T08:11:14.330Z,506.25
2018-09-28T08:12:14.664Z,500.63
2018-09-28T08:13:14.810Z,483.75
2018-09-28T08:14:14.976Z,450.00
2018-09-28T08:15:14.983Z,421.88
2018-09-28T08:16:15.209Z,405.00
2018-09-28T08:17:15.315Z,388.13
2018-09-28T08:18:15.578Z,376.88
2018-09-28T08:19:15.789Z,360.00
2018-09-28T08:20:16.125Z,354.38
2018-09-28T08:21:16.091Z,326.25
2018-09-28T08:22:16.263Z,320.63
2018-09-28T08:23:16.509Z,298.13
2018-09-28T08:24:16.633Z,275.63
2018-09-28T08:25:16.846Z,275.63
2018-09-28T08:26:17.073Z,270.00
2018-09-28T08:27:17.181Z,264.38
2018-09-28T08:28:17.311Z,264.38
2018-09-28T08:29:17.624Z,264.38
2018-09-28T08:30:17.786Z,275.63
2018-09-28T08:31:17.864Z,315.00
2018-09-28T08:32:17.979Z,360.00
2018-09-28T08:33:18.221Z,371.25
2018-09-28T08:34:18.304Z,331.88
2018-09-28T08:35:18.677Z,309.38
2018-09-28T08:36:19.489Z,331.88
2018-09-28T08:37:18.853Z,365.63
2018-09-28T08:38:19.022Z,309.38
2018-09-28T08:39:19.170Z,253.13
2018-09-28T08:40:19.313Z,230.63
2018-09-28T08:41:19.484Z,236.25
2018-09-28T08:42:19.664Z,241.88
2018-09-28T08:43:19.813Z,219.38
2018-09-28T08:44:20.016Z,191.25
2018-09-28T08:45:20.236Z,185.63
2018-09-28T08:46:20.365Z,180.00
2018-09-28T08:47:20.457Z,185.63
2018-09-28T08:48:20.681Z,191.25
2018-09-28T08:49:21.150Z,196.88
2018-09-28T08:50:20.903Z,185.63
2018-09-28T08:51:21.108Z,180.00
2018-09-28T08:52:21.433Z,180.00
2018-09-28T08:53:21.521Z,180.00
2018-09-28T08:54:21.816Z,191.25
2018-09-28T08:55:21.903Z,208.13
2018-09-28T08:56:22.206Z,247.50
2018-09-28T08:57:23.548Z,331.88
2018-09-28T08:58:22.348Z,331.88
2018-09-28T08:59:22.454Z,292.50
2018-09-28T09:00:22.596Z,264.38
2018-09-28T09:01:22.980Z,225.00
2018-09-28T09:02:22.901Z,202.50
2018-09-28T09:03:23.154Z,213.75
2018-09-28T09:04:23.518Z,213.75
2018-09-28T09:05:23.654Z,202.50
2018-09-28T09:06:23.712Z,196.88
2018-09-28T09:07:23.829Z,208.13
2018-09-28T09:08:24.008Z,208.13
2018-09-28T09:09:24.233Z,191.25
2018-09-28T09:10:24.532Z,185.63
2018-09-28T09:11:24.560Z,185.63
2018-09-28T09:12:24.802Z,185.63
2018-09-28T09:13:24.989Z,185.63
2018-09-28T09:14:25.152Z,191.25
2018-09-28T09:15:25.318Z,191.25
2018-09-28T09:16:25.345Z,185.63
2018-09-28T09:17:25.523Z,180.00
2018-09-28T09:18:25.794Z,180.00
2018-09-28T09:19:25.937Z,191.25
2018-09-28T09:20:26.102Z,202.50
2018-09-28T09:21:26.160Z,213.75
2018-09-28T09:22:26.438Z,219.38
2018-09-28T09:23:26.669Z,230.63
2018-09-28T09:24:26.756Z,236.25
2018-09-28T09:25:26.934Z,230.63
2018-09-28T09:26:27.160Z,225.00
2018-09-28T09:27:27.201Z,219.38
2018-09-28T09:28:27.452Z,208.13
2018-09-28T09:29:27.601Z,196.88
2018-09-28T09:30:27.829Z,191.25
2018-09-28T09:31:28.754Z,191.25
2018-09-28T09:32:28.193Z,191.25
2018-09-28T09:33:28.255Z,196.88
2018-09-28T09:34:28.414Z,202.50
2018-09-28T09:35:28.579Z,202.50
2018-09-28T09:36:28.861Z,208.13
2018-09-28T09:37:29.019Z,213.75
2018-09-28T09:38:29.237Z,230.63
2018-09-28T09:39:29.416Z,258.75
2018-09-28T09:40:29.572Z,286.88
2018-09-28T09:41:29.643Z,292.50
2018-09-28T09:42:29.819Z,264.38
2018-09-28T09:43:30.069Z,225.00
2018-09-28T09:44:30.210Z,208.13
2018-09-28T09:45:30.341Z,202.50
2018-09-28T09:46:30.460Z,208.13
2018-09-28T09:47:30.661Z,213.75
2018-09-28T09:48:31.511Z,225.00
2018-09-28T09:49:31.039Z,236.25
2018-09-28T09:50:31.426Z,241.88
2018-09-28T09:51:31.447Z,253.13
2018-09-28T09:52:31.627Z,253.13
2018-09-28T09:53:31.840Z,247.50
2018-09-28T09:54:31.949Z,253.13
2018-09-28T09:55:32.205Z,264.38
2018-09-28T09:56:32.271Z,253.13
2018-09-28T09:57:32.504Z,236.25
2018-09-28T09:58:32.676Z,219.38
2018-09-28T09:59:32.783Z,208.13
2018-09-28T10:00:32.997Z,202.50
2018-09-28T10:01:33.229Z,202.50
2018-09-28T10:02:33.254Z,208.13
2018-09-28T10:03:33.469Z,213.75
2018-09-28T10:04:33.630Z,213.75
2018-09-28T10:05:33.776Z,213.75
2018-09-28T10:06:33.960Z,208.13
2018-09-28T10:07:34.133Z,202.50
2018-09-28T10:08:34.304Z,196.88
2018-09-28T10:09:34.581Z,191.25
2018-09-28T10:10:35.470Z,185.63
2018-09-28T10:11:34.949Z,185.63
2018-09-28T10:12:34.983Z,185.63
2018-09-28T10:13:35.057Z,185.63
2018-09-28T10:14:35.341Z,174.38
2018-09-28T10:15:35.409Z,168.75
2018-09-28T10:16:35.715Z,163.13
2018-09-28T10:17:35.824Z,157.50
2018-09-28T10:18:36.017Z,151.88
2018-09-28T10:19:36.257Z,151.88
2018-09-28T10:20:36.448Z,151.88
2018-09-28T10:21:36.458Z,146.25
2018-09-28T10:22:36.654Z,140.63
2018-09-28T10:23:36.873Z,146.25
2018-09-28T10:24:37.050Z,157.50
2018-09-28T10:25:37.150Z,157.50
2018-09-28T10:26:37.372Z,168.75
2018-09-28T10:27:37.482Z,180.00
2018-09-28T10:28:37.729Z,180.00
2018-09-28T10:29:37.831Z,180.00
2018-09-28T10:30:37.993Z,174.38
2018-09-28T10:31:38.183Z,174.38
2018-09-28T10:32:38.325Z,174.38
2018-09-28T10:33:38.590Z,168.75
2018-09-28T10:34:38.765Z,174.38
2018-09-28T10:35:38.918Z,185.63
2018-09-28T10:36:38.971Z,185.63
2018-09-28T10:37:39.175Z,180.00
2018-09-28T10:38:39.321Z,180.00
2018-09-28T10:39:39.643Z,185.63
2018-09-28T10:40:39.870Z,185.63
2018-09-28T10:41:39.973Z,191.25
2018-09-28T10:42:40.117Z,208.13
2018-09-28T10:43:40.232Z,219.38
2018-09-28T10:44:40.442Z,208.13
2018-09-28T10:45:40.654Z,185.63
2018-09-28T10:46:40.754Z,208.13
2018-09-28T10:47:40.932Z,258.75
2018-09-28T10:48:41.151Z,264.38
2018-09-28T10:49:41.261Z,258.75
2018-09-28T10:50:41.444Z,225.00
2018-09-28T10:51:41.644Z,191.25
2018-09-28T10:52:41.849Z,185.63
2018-09-28T10:53:42.019Z,185.63
2018-09-28T10:54:42.153Z,196.88
2018-09-28T10:55:42.265Z,202.50
2018-09-28T10:56:42.460Z,196.88
2018-09-28T10:57:42.756Z,180.00
2018-09-28T10:58:42.948Z,157.50
2018-09-28T10:59:43.118Z,157.50
2018-09-28T11:00:43.336Z,168.75
2018-09-28T11:01:43.601Z,174.38
2018-09-28T11:02:43.544Z,174.38
2018-09-28T11:03:43.869Z,196.88
2018-09-28T11:04:43.933Z,236.25
2018-09-28T11:05:44.038Z,253.13
2018-09-28T11:06:44.372Z,253.13
2018-09-28T11:07:45.202Z,253.13
2018-09-28T11:08:45.616Z,230.63
2018-09-28T11:09:44.924Z,202.50
2018-09-28T11:10:45.248Z,213.75
2018-09-28T11:11:45.154Z,241.88
2018-09-28T11:12:46.273Z,270.00
2018-09-28T11:13:46.086Z,292.50
2018-09-28T11:14:45.541Z,315.00
2018-09-28T11:16:46.102Z,523.13
2018-09-28T11:17:46.423Z,596.25
2018-09-28T11:18:46.360Z,624.38
2018-09-28T11:19:46.538Z,596.25
2018-09-28T11:20:46.825Z,556.88
2018-09-28T11:21:47.700Z,556.88
2018-09-28T11:22:47.817Z,500.63
2018-09-28T11:23:47.212Z,478.13
2018-09-28T11:24:47.634Z,483.75
2018-09-28T11:25:48.277Z,466.88
2018-09-28T11:26:47.682Z,472.50
2018-09-28T11:27:47.777Z,506.25
2018-09-28T11:28:48.032Z,562.50
2018-09-28T11:29:48.124Z,556.88
2018-09-28T11:30:48.436Z,613.13
2018-09-28T11:31:48.448Z,624.38
2018-09-28T11:32:48.760Z,658.13
2018-09-28T11:33:49.107Z,708.75
2018-09-28T11:34:48.975Z,703.13
2018-09-28T11:35:49.193Z,708.75
2018-09-28T11:36:49.298Z,646.88
2018-09-28T11:37:49.553Z,590.63
2018-09-28T11:38:49.687Z,675.00
2018-09-28T11:39:49.861Z,736.88
2018-09-28T11:40:49.889Z,714.38
2018-09-28T11:41:50.009Z,703.13
2018-09-28T11:42:50.392Z,691.88
2018-09-28T11:43:51.823Z,641.25
2018-09-28T11:44:50.631Z,624.38
2018-09-28T11:45:50.876Z,585.00
2018-09-28T11:46:50.980Z,540.00
2018-09-28T11:47:51.082Z,489.38
2018-09-28T11:48:51.354Z,438.75
2018-09-28T11:49:51.701Z,472.50
2018-09-28T11:50:51.763Z,472.50
2018-09-28T11:51:51.908Z,438.75
2018-09-28T11:52:52.087Z,382.50
2018-09-28T11:53:52.281Z,354.38
2018-09-28T11:54:52.401Z,343.13
2018-09-28T11:55:52.688Z,331.88
2018-09-28T11:56:52.769Z,315.00
2018-09-28T11:57:52.786Z,298.13
2018-09-28T11:58:52.936Z,286.88
2018-09-28T11:59:53.266Z,281.25
2018-09-28T12:00:53.247Z,275.63
2018-09-28T12:01:53.439Z,275.63
2018-09-28T12:02:53.588Z,275.63
2018-09-28T12:03:53.746Z,286.88
2018-09-28T12:04:53.986Z,309.38
2018-09-28T12:05:54.172Z,315.00
2018-09-28T12:06:54.390Z,309.38
2018-09-28T12:07:54.460Z,298.13
2018-09-28T12:08:54.650Z,303.75
2018-09-28T12:09:54.865Z,315.00
2018-09-28T12:10:55.001Z,331.88
2018-09-28T12:11:55.092Z,337.50
2018-09-28T12:12:55.347Z,326.25
2018-09-28T12:13:55.458Z,309.38
2018-09-28T12:14:55.672Z,309.38
2018-09-28T12:15:55.893Z,326.25
2018-09-28T12:16:56.107Z,337.50
2018-09-28T12:17:56.199Z,365.63
2018-09-28T12:18:56.284Z,376.88
2018-09-28T12:19:56.459Z,365.63
2018-09-28T12:20:56.684Z,354.38
2018-09-28T12:21:56.927Z,360.00
2018-09-28T12:22:57.046Z,365.63
2018-09-28T12:23:57.146Z,360.00
2018-09-28T12:24:57.360Z,331.88
2018-09-28T12:25:57.599Z,315.00
2018-09-28T12:26:57.700Z,309.38
2018-09-28T12:27:57.855Z,309.38
2018-09-28T12:28:58.070Z,315.00
2018-09-28T12:29:58.314Z,315.00
2018-09-28T12:30:58.302Z,309.38
2018-09-28T12:31:58.532Z,320.63
2018-09-28T12:32:58.827Z,337.50
2018-09-28T12:33:58.997Z,354.38
2018-09-28T12:34:59.075Z,371.25
2018-09-28T12:35:59.242Z,405.00
2018-09-28T12:36:59.417Z,450.00
2018-09-28T12:37:59.600Z,489.38
2018-09-28T12:39:00.086Z,556.88
2018-09-28T12:40:00.057Z,528.75
2018-09-28T12:41:00.087Z,506.25
2018-09-28T12:42:00.230Z,472.50
2018-09-28T12:43:00.332Z,450.00
2018-09-28T12:44:00.578Z,410.63
2018-09-28T12:45:01.055Z,365.63
2018-09-28T12:46:00.965Z,354.38
2018-09-28T12:47:01.059Z,348.75
2018-09-28T12:48:01.260Z,348.75
2018-09-28T12:49:01.420Z,337.50
2018-09-28T12:50:01.569Z,337.50
2018-09-28T12:51:01.783Z,371.25
2018-09-28T12:52:01.939Z,416.25
2018-09-28T12:53:02.982Z,455.63
2018-09-28T12:54:02.244Z,489.38
2018-09-28T12:55:02.411Z,511.88
2018-09-28T12:56:02.484Z,534.38
2018-09-28T12:57:02.789Z,528.75
2018-09-28T12:58:02.957Z,483.75
2018-09-28T12:59:03.131Z,427.50
2018-09-28T13:00:03.241Z,433.13
2018-09-28T13:01:03.587Z,421.88
2018-09-28T13:02:03.531Z,371.25
2018-09-28T13:03:03.844Z,343.13
2018-09-28T13:04:03.942Z,360.00
2018-09-28T13:05:04.089Z,376.88
2018-09-28T13:06:04.262Z,376.88
2018-09-28T13:07:04.428Z,343.13
2018-09-28T13:08:04.593Z,309.38
2018-09-28T13:09:04.808Z,292.50
2018-09-28T13:10:05.089Z,286.88
2018-09-28T13:11:05.129Z,281.25
2018-09-28T13:12:05.338Z,292.50
2018-09-28T13:13:05.416Z,315.00
2018-09-28T13:14:05.687Z,337.50
2018-09-28T13:15:05.927Z,382.50
2018-09-28T13:16:05.889Z,427.50
2018-09-28T13:17:06.108Z,433.13
2018-09-28T13:18:06.245Z,410.63
2018-09-28T13:19:06.511Z,427.50
2018-09-28T13:20:06.752Z,450.00
2018-09-28T13:21:06.836Z,478.13
2018-09-28T13:22:07.096Z,444.38
2018-09-28T13:23:07.083Z,388.13
2018-09-28T13:24:07.375Z,388.13
2018-09-28T13:25:07.531Z,444.38
2018-09-28T13:26:07.720Z,545.63
2018-09-28T13:27:07.796Z,686.25
2018-09-28T13:28:08.093Z,759.38
2018-09-28T13:29:08.200Z,691.88
2018-09-28T13:30:08.486Z,528.75
2018-09-28T13:31:08.651Z,540.00
2018-09-28T13:32:09.169Z,573.75
2018-09-28T13:33:08.825Z,585.00
2018-09-28T13:34:09.018Z,652.50
2018-09-28T13:35:09.370Z,742.50
2018-09-28T13:36:09.509Z,748.13
2018-09-28T13:37:09.686Z,866.25
2018-09-28T13:38:09.908Z,838.13
2018-09-28T13:39:10.061Z,765.00
2018-09-28T13:40:10.211Z,703.13
2018-09-28T13:41:10.356Z,624.38
2018-09-28T13:42:10.624Z,568.13
2018-09-28T13:43:11.457Z,562.50
2018-09-28T13:44:11.036Z,562.50
2018-09-28T13:45:11.009Z,523.13
2018-09-28T13:46:11.468Z,472.50
2018-09-28T13:47:11.423Z,466.88
2018-09-28T13:48:11.558Z,489.38
2018-09-28T13:49:11.850Z,517.50
2018-09-28T13:50:11.908Z,528.75
2018-09-28T13:51:12.076Z,511.88
2018-09-28T13:52:12.320Z,455.63
2018-09-28T13:53:12.480Z,393.75
2018-09-28T13:54:12.663Z,354.38
2018-09-28T13:55:12.775Z,343.13
2018-09-28T13:56:13.161Z,343.13
2018-09-28T13:57:13.190Z,348.75
2018-09-28T13:59:49.215Z,399.38
2018-09-28T14:01:49.639Z,461.25
2018-09-28T14:02:50.473Z,489.38
2018-09-28T14:03:49.937Z,523.13
2018-09-28T14:04:50.219Z,596.25
2018-09-28T14:05:50.315Z,691.88
2018-09-28T14:06:50.826Z,770.63
2018-09-28T14:07:50.625Z,798.75
2018-09-28T14:08:48.808Z,894.38
2018-09-28T14:09:48.124Z,1276.88
2018-09-28T14:10:48.365Z,1366.88
2018-09-28T14:11:48.606Z,1530.00
2018-09-28T14:12:48.982Z,3780.00
2018-09-28T14:13:49.457Z,2289.38
2018-09-28T14:14:49.040Z,2581.88
2018-09-28T14:15:49.202Z,2025.00
2018-09-28T14:16:49.360Z,2030.63
2018-09-28T14:17:49.576Z,1040.63
2018-09-28T14:18:49.858Z,832.50
2018-09-28T14:19:49.941Z,821.25
2018-09-28T14:20:50.096Z,804.38
2018-09-28T14:21:50.493Z,725.63
2018-09-28T14:22:50.639Z,613.13
2018-09-28T14:23:50.699Z,523.13
2018-09-28T14:24:50.912Z,483.75
2018-09-28T14:25:50.986Z,472.50
2018-09-28T14:26:51.206Z,472.50
2018-09-28T14:27:51.271Z,472.50
2018-09-28T14:28:51.511Z,472.50
2018-09-28T14:29:51.596Z,461.25
2018-09-28T14:30:51.761Z,455.63
2018-09-28T14:31:51.929Z,444.38
2018-09-28T14:32:52.145Z,450.00
2018-09-28T14:33:52.330Z,427.50
2018-09-28T14:34:52.400Z,399.38
2018-09-28T14:35:52.568Z,354.38
2018-09-28T14:36:52.676Z,320.63
2018-09-28T14:37:53.025Z,303.75
2018-09-28T14:38:53.103Z,298.13
2018-09-28T14:39:53.297Z,298.13
2018-09-28T14:40:53.406Z,298.13
2018-09-28T14:41:53.620Z,286.88
2018-09-28T14:42:53.814Z,264.38
2018-09-28T14:43:54.099Z,241.88
2018-09-28T14:44:54.104Z,230.63
2018-09-28T14:45:54.325Z,219.38
2018-09-28T14:46:54.710Z,213.75
2018-09-28T14:47:54.785Z,208.13
2018-09-28T14:48:54.962Z,196.88
2018-09-28T14:50:23.139Z,185.63
2018-09-28T14:50:55.113Z,180.00
2018-09-28T14:51:55.251Z,180.00
2018-09-28T14:52:55.361Z,185.63
2018-09-28T14:53:55.634Z,191.25
2018-09-28T14:54:55.768Z,202.50
2018-09-28T14:55:56.011Z,219.38
2018-09-28T14:56:56.126Z,219.38
2018-09-28T14:57:56.478Z,213.75
2018-09-28T14:58:56.347Z,202.50
2018-09-28T14:59:56.667Z,196.88
2018-09-28T15:00:56.905Z,196.88
2018-09-28T15:01:57.031Z,213.75
2018-09-28T15:02:57.182Z,253.13
2018-09-28T15:03:57.307Z,292.50
2018-09-28T15:04:57.497Z,315.00
2018-09-28T15:05:57.699Z,337.50
2018-09-28T15:06:57.959Z,360.00
2018-09-28T15:07:58.022Z,382.50
2018-09-28T15:08:58.152Z,399.38
2018-09-28T15:09:58.374Z,399.38
2018-09-28T15:10:58.521Z,433.13
2018-09-28T15:11:58.682Z,472.50
2018-09-28T15:12:58.851Z,506.25
2018-09-28T15:13:59.077Z,523.13
2018-09-28T15:14:59.318Z,528.75
2018-09-28T15:15:59.494Z,500.63
2018-09-28T15:16:59.734Z,472.50
2018-09-28T15:17:59.844Z,421.88
2018-09-28T15:19:00.003Z,388.13
2018-09-28T15:20:00.300Z,360.00
2018-09-28T15:21:00.449Z,343.13
2018-09-28T15:22:01.066Z,354.38
2018-09-28T15:23:00.748Z,376.88
2018-09-28T15:24:00.893Z,388.13
2018-09-28T15:25:01.010Z,388.13
2018-09-28T15:26:01.179Z,382.50
2018-09-28T15:27:01.323Z,360.00
2018-09-28T15:28:01.511Z,343.13
2018-09-28T15:29:01.706Z,326.25
2018-09-28T15:30:01.816Z,320.63
2018-09-28T15:31:02.068Z,303.75
2018-09-28T15:32:02.233Z,292.50
2018-09-28T15:33:02.459Z,286.88
2018-09-28T15:34:02.586Z,286.88
2018-09-28T15:35:02.667Z,275.63
2018-09-28T15:36:03.009Z,270.00
2018-09-28T15:37:03.983Z,264.38
2018-09-28T15:38:03.405Z,258.75
2018-09-28T15:39:03.580Z,253.13
2018-09-28T15:40:03.658Z,258.75
2018-09-28T15:41:03.910Z,264.38
2018-09-28T15:42:04.149Z,275.63
2018-09-28T15:43:04.270Z,275.63
2018-09-28T15:44:04.324Z,275.63
2018-09-28T15:45:04.569Z,270.00
2018-09-28T15:46:04.725Z,264.38
2018-09-28T15:47:04.905Z,253.13
2018-09-28T15:48:05.141Z,247.50
2018-09-28T15:49:05.185Z,247.50
2018-09-28T15:50:05.349Z,247.50
2018-09-28T15:51:05.508Z,247.50
2018-09-28T15:52:05.610Z,247.50
2018-09-28T15:53:05.939Z,253.13
2018-09-28T15:54:06.827Z,264.38
2018-09-28T15:55:07.021Z,270.00
2018-09-28T15:56:06.536Z,270.00
2018-09-28T15:57:06.772Z,275.63
2018-09-28T15:58:06.859Z,270.00
2018-09-28T15:59:07.156Z,270.00
2018-09-28T16:00:07.530Z,258.75
2018-09-28T16:01:07.626Z,253.13
2018-09-28T16:02:07.621Z,241.88
2018-09-28T16:03:07.679Z,230.63
2018-09-28T16:04:08.090Z,219.38